Česky Dansk Deutsch English Español Suomi Français Magyar Italiano Nederlands norsk Polski Português svenska Türkçe

 

Het Weer

Antofagasta (Chili)

23:00, 22 augustus 2016 (GMT)

NWNNE
WE
SWSSE
Home            
Antofagasta Chanaral Iquique / Diego Arac Copiapo La Quiaca Observatorio Salta Aerodrome Jujuy Aerodrome Arica Vallenar Tinogasta Tacna Tarija Oran Aerodrome Potosi Charana Tucuman Aerodrome Tartagal Aerodrome Oruro Chilecito Yacuiba La Serena Sucre Catamarca Aero.

Om een weerknop op uw website of weblog te plaatsen, copieer onderstaande code en plak die in uw pagina. In het eerste vakje staat HTML-code, in het tweede vakje UBB-code.


Add to Google

Details

Wind speed:2 bf, 5 kn, 2.6 m/s, 5.8 miles/h, 9.3 km/h
Wind direction:SSW, 200°
Visibility:Greater than 10000 m, 10 km, 32800 ft, 6.2 miles
Clouds:Aufgelockert bewölkt at 1700 ft, 518 m
Aufgelockert bewölkt at 25000 ft, 7620 m
Temperature:15°C, 59°F
Dew-point:11°C, 52°F
Atmospheric pressure:1013 hPa, 759.8 mmHg, 29.91 inHg, 1.000 atm
Relative humidity:77.0 %
METAR:SCFA 222300Z 20005KT 9999 SCT017 SCT250 15/11 Q1013 NOSIG

Snelkoppelingen

Actuele weersinformatie van de hele wereld. Voeg locaties toe met het plus (+) symbool. Deze snelkoppelingen kunnen worden toegevoegd aan Google.

Lid van de Technetium groep

website free tracking
StatCounter NetStat W3C Validator

19-01-2021 05:37:13
astro.technetium.be money.technetium.be phote.technetium.be tafeltennistafel.technetium.be www.ligfiets.net